Terminal Aerodrome Forecast
Issued by NWS Hastings, NE

Home | Current Version | Previous Version | Text Only | Print | Product List | Glossary On
Versions: 1 2 3 4 5 6 7 8 9 10 11 12 13
512
FTUS45 KGID 271301 AAA
TAFEAR
TAF AMD
KEAR 271301Z 2713/2812 30008KT P6SM FEW100 SCT250
     FM271800 16008KT P6SM VCTS SCT070CB BKN250
     FM280600 33004KT P6SM BKN110
     FM280900 34005KT P6SM SCT110
      AMD LTD TO CLD VIS AND WIND=

USA.gov is the U.S. government's official web portal to all federal, state and local government web resources and services.